Time;durP1;ratioP1;P1;durP2;ratioP2;P2;SDS_P1;SDS_P2;PMS_P1;PMS_P2;Temp;Humidity;BMP_temperature;BMP_pressure;BME280_temperature;BME280_humidity;BME280_pressure;Samples;Min_cycle;Max_cycle;Signal;HPM_P1;HPM_P2
2024/03/10 00:05:24;;;;;;;24.5;16;;;;;;;4.87;79.34;98175;;;;
2024/03/10 00:15:24;;;;;;;24.5;16;;;;;;;4.96;79.11;98173.333333333;;;;
2024/03/10 00:26:24;;;;;;;32.3;20.2;;;;;;;4.95;79.44;98180;;;;
2024/03/10 00:36:24;;;;;;;32.3;20.2;;;;;;;5.06;79.17;98191.666666667;;;;
2024/03/10 00:47:24;;;;;;;26.6;15.9;;;;;;;5.07;78.92;98193.333333333;;;;
2024/03/10 00:58:24;;;;;;;26.6;15.9;;;;;;;5.04;78.54;98185;;;;
2024/03/10 01:09:24;;;;;;;26.6;15.9;;;;;;;4.91;78.7;98181.666666667;;;;
2024/03/10 01:19:24;;;;;;;24.4;15.7;;;;;;;4.79;79.37;98166.666666667;;;;
2024/03/10 01:30:24;;;;;;;24.4;15.7;;;;;;;4.61;79.88;98155;;;;
2024/03/10 01:40:24;;;;;;;24.4;15.7;;;;;;;4.58;80;98146.666666667;;;;
2024/03/10 01:51:24;;;;;;;31.1;17.1;;;;;;;4.35;81.13;98141.666666667;;;;
2024/03/10 02:01:24;;;;;;;31.1;17.1;;;;;;;4.39;80.38;98138.333333333;;;;
2024/03/10 02:11:24;;;;;;;31.1;17.1;;;;;;;4.33;80.03;98136.666666667;;;;
2024/03/10 02:22:24;;;;;;;32.7;17.1;;;;;;;3.81;82.18;98113.333333333;;;;
2024/03/10 02:54:24;;;;;;;29.4;16.3;;;;;;;3.23;84.51;98105;;;;
2024/03/10 03:04:26;;;;;;;29.4;16.3;;;;;;;3.32;83.79;98106.666666667;;;;
2024/03/10 03:15:24;;;;;;;30.1;14.3;;;;;;;3.24;83.59;98096.666666667;;;;
2024/03/10 03:26:24;;;;;;;30.1;14.3;;;;;;;3.09;84.67;98091.666666667;;;;
2024/03/10 03:37:24;;;;;;;30.1;14.3;;;;;;;3.14;84.56;98078.333333333;;;;
2024/03/10 03:48:24;;;;;;;26.6;16;;;;;;;3.25;83.98;98078.333333333;;;;
2024/03/10 03:58:24;;;;;;;26.6;16;;;;;;;3.16;84.42;98071.666666667;;;;
2024/03/10 04:09:24;;;;;;;26.6;16;;;;;;;2.99;84.79;98058.333333333;;;;
2024/03/10 04:19:24;;;;;;;27.3;15.7;;;;;;;3;85.11;98061.666666667;;;;
2024/03/10 04:30:24;;;;;;;27.3;15.7;;;;;;;2.83;85.28;98030;;;;
2024/03/10 04:40:24;;;;;;;27.3;15.7;;;;;;;2.88;84.86;98043.333333333;;;;
2024/03/10 04:50:24;;;;;;;29.3;15.5;;;;;;;2.87;84.72;98061.666666667;;;;
2024/03/10 05:01:24;;;;;;;29.3;15.5;;;;;;;2.68;85.54;98051.666666667;;;;
2024/03/10 05:12:24;;;;;;;29.3;15.5;;;;;;;2.71;85.29;98061.666666667;;;;
2024/03/10 05:23:24;;;;;;;25.3;14.6;;;;;;;2.6;85.1;98066.666666667;;;;
2024/03/10 05:34:24;;;;;;;25.3;14.6;;;;;;;2.56;85;98065;;;;
2024/03/10 05:45:24;;;;;;;24.5;14.6;;;;;;;2.36;86.35;98038.333333333;;;;
2024/03/10 05:55:24;;;;;;;24.5;14.6;;;;;;;2.44;86.8;98033.333333333;;;;
2024/03/10 06:06:24;;;;;;;24.5;14.6;;;;;;;2.85;86.82;98050;;;;
2024/03/10 06:16:24;;;;;;;23.4;15.2;;;;;;;3.21;85.81;98055;;;;
2024/03/10 06:26:24;;;;;;;23.4;15.2;;;;;;;3.34;84.85;98045;;;;
2024/03/10 06:37:24;;;;;;;23.4;15.2;;;;;;;3.69;83.73;98046.666666667;;;;
2024/03/10 06:48:24;;;;;;;26.6;15.1;;;;;;;4.1;83.15;98040;;;;
2024/03/10 06:58:24;;;;;;;26.6;15.1;;;;;;;4.59;82.75;98045;;;;
2024/03/10 07:09:25;;;;;;;26.6;15.1;;;;;;;5.02;80.2;98030;;;;
2024/03/10 07:20:24;;;;;;;23.3;13;;;;;;;5.69;79.62;98031.666666667;;;;
2024/03/10 07:30:24;;;;;;;23.3;13;;;;;;;6.04;78.64;98021.666666667;;;;
2024/03/10 07:41:24;;;;;;;23.3;13;;;;;;;6.32;76.85;98025;;;;
2024/03/10 07:52:24;;;;;;;24.9;14.8;;;;;;;6.95;76.53;98015;;;;
2024/03/10 08:03:24;;;;;;;24.9;14.8;;;;;;;7.46;73.87;98006.666666667;;;;
2024/03/10 08:14:24;;;;;;;23.8;16.1;;;;;;;8.1;73.23;97991.666666667;;;;
2024/03/10 08:24:25;;;;;;;23.8;16.1;;;;;;;8.33;71.41;97983.333333333;;;;
2024/03/10 08:34:26;;;;;;;23.8;16.1;;;;;;;8.63;70.79;97986.666666667;;;;
2024/03/10 08:45:25;;;;;;;22;15.2;;;;;;;9.32;69.48;97971.666666667;;;;
2024/03/10 08:55:24;;;;;;;22;15.2;;;;;;;9.98;68.08;97971.666666667;;;;
2024/03/10 09:06:26;;;;;;;22;15.2;;;;;;;10.71;64.65;97956.666666667;;;;
2024/03/10 09:16:24;;;;;;;21.8;15.7;;;;;;;11.43;64.07;97951.666666667;;;;
2024/03/10 09:27:24;;;;;;;21.8;15.7;;;;;;;12.2;61.96;97951.666666667;;;;
2024/03/10 09:37:28;;;;;;;21.8;15.7;;;;;;;12.42;60.24;97945;;;;
2024/03/10 09:47:24;;;;;;;20.3;14.3;;;;;;;12.82;59.38;97945;;;;
2024/03/10 09:57:24;;;;;;;20.3;14.3;;;;;;;12.99;59.52;97941.666666667;;;;
2024/03/10 10:08:24;;;;;;;20.3;14.3;;;;;;;13.13;59.79;97935;;;;
2024/03/10 10:19:25;;;;;;;16.3;14.1;;;;;;;13.65;60.55;97920;;;;
2024/03/10 10:29:25;;;;;;;16.3;14.1;;;;;;;14.37;58.62;97905;;;;
2024/03/10 10:40:25;;;;;;;16.3;14.1;;;;;;;14.44;57.11;97906.666666667;;;;
2024/03/10 10:50:31;;;;;;;16.8;13.1;;;;;;;14.4;58.14;97903.333333333;;;;
2024/03/10 11:01:25;;;;;;;16.8;13.1;;;;;;;14.96;56.35;97898.333333333;;;;
2024/03/10 11:11:24;;;;;;;16.8;13.1;;;;;;;15.15;55.4;97895;;;;
2024/03/10 11:22:25;;;;;;;15.5;10.5;;;;;;;14.94;55.64;97895;;;;
2024/03/10 11:33:24;;;;;;;15.5;10.5;;;;;;;14.67;57.67;97881.666666667;;;;
2024/03/10 11:43:25;;;;;;;15.5;10.5;;;;;;;14.85;56.36;97875;;;;
2024/03/10 11:54:24;;;;;;;14.6;12;;;;;;;15.06;57.12;97875;;;;
2024/03/10 12:05:24;;;;;;;14.6;12;;;;;;;15.45;57.42;97851.666666667;;;;
2024/03/10 12:15:24;;;;;;;19.8;15.1;;;;;;;15.86;55.53;97841.666666667;;;;
2024/03/10 12:25:24;;;;;;;19.8;15.1;;;;;;;16.09;55.12;97830;;;;
2024/03/10 12:36:24;;;;;;;19.8;15.1;;;;;;;15.92;55.97;97826.666666667;;;;
2024/03/10 12:47:24;;;;;;;12.5;9.2;;;;;;;15.99;55.66;97813.333333333;;;;
2024/03/10 12:57:24;;;;;;;12.5;9.2;;;;;;;15.96;56.26;97810;;;;
2024/03/10 13:08:24;;;;;;;12.5;9.2;;;;;;;15.9;54.6;97803.333333333;;;;
2024/03/10 13:18:26;;;;;;;6.7;4.5;;;;;;;15.68;55.22;97800;;;;
2024/03/10 13:29:24;;;;;;;6.7;4.5;;;;;;;15.34;56.37;97793.333333333;;;;
2024/03/10 13:40:24;;;;;;;6.7;4.5;;;;;;;15.15;57.32;97781.666666667;;;;
2024/03/10 13:50:24;;;;;;;9.3;3.9;;;;;;;15.01;57.8;97778.333333333;;;;
2024/03/10 14:00:24;;;;;;;9.3;3.9;;;;;;;14.96;57.81;97776.666666667;;;;
2024/03/10 14:11:24;;;;;;;9.3;3.9;;;;;;;14.42;60.04;97773.333333333;;;;
2024/03/10 14:21:25;;;;;;;7.2;4.1;;;;;;;14.24;60.61;97773.333333333;;;;
2024/03/10 14:31:24;;;;;;;7.2;4.1;;;;;;;13.97;60.92;97775;;;;
2024/03/10 14:42:25;;;;;;;7.2;4.1;;;;;;;14.03;61.4;97780;;;;
2024/03/10 14:53:24;;;;;;;8.1;4.9;;;;;;;13.33;62.66;97785;;;;
2024/03/10 15:04:24;;;;;;;8.1;4.9;;;;;;;13.21;64.12;97783.333333333;;;;
2024/03/10 15:15:24;;;;;;;7.2;4.9;;;;;;;12.92;64.24;97791.666666667;;;;
2024/03/10 15:26:24;;;;;;;7.2;4.9;;;;;;;12.67;64.57;97790;;;;
2024/03/10 15:36:24;;;;;;;7.2;4.9;;;;;;;12.25;66.71;97793.333333333;;;;
2024/03/10 15:47:24;;;;;;;7.5;4.6;;;;;;;11.97;67.29;97800;;;;
2024/03/10 15:57:24;;;;;;;7.5;4.6;;;;;;;11.73;67.76;97796.666666667;;;;
2024/03/10 16:08:24;;;;;;;7.5;4.6;;;;;;;11.4;69.06;97803.333333333;;;;
2024/03/10 16:18:24;;;;;;;9.9;4.9;;;;;;;11.07;70.27;97792.5;;;;
2024/03/10 16:28:25;;;;;;;9.9;4.9;;;;;;;10.88;70.63;97790;;;;
2024/03/10 16:38:24;;;;;;;9.9;4.9;;;;;;;10.58;71.64;97797.5;;;;
2024/03/10 16:48:25;;;;;;;8.9;5;;;;;;;10.41;72.5;97800;;;;
2024/03/10 16:59:24;;;;;;;8.9;5;;;;;;;10.31;73.15;97805;;;;
2024/03/10 17:10:24;;;;;;;8.9;5;;;;;;;10.29;73.11;97802.5;;;;
2024/03/10 17:20:24;;;;;;;11.1;6.1;;;;;;;10.2;73.39;97802.5;;;;
2024/03/10 17:31:25;;;;;;;11.1;6.1;;;;;;;10.14;73.8;97807.5;;;;
2024/03/10 17:41:24;;;;;;;11.1;6.1;;;;;;;10.09;73.96;97800;;;;
2024/03/10 17:52:24;;;;;;;11.9;6.9;;;;;;;10.07;74.4;97810;;;;
2024/03/10 18:02:24;;;;;;;11.9;6.9;;;;;;;10.01;74.48;97805;;;;
2024/03/10 18:12:26;;;;;;;11.9;6.9;;;;;;;9.91;75.14;97806.666666667;;;;
2024/03/10 18:22:24;;;;;;;11.2;7.1;;;;;;;9.8;76.87;97800;;;;
2024/03/10 18:32:25;;;;;;;11.2;7.1;;;;;;;9.65;79.48;97818.333333333;;;;
2024/03/10 18:43:24;;;;;;;11.2;7.1;;;;;;;9.57;80.16;97822;;;;
2024/03/10 18:54:24;;;;;;;12;6.9;;;;;;;9.35;82.24;97818;;;;
2024/03/10 19:05:24;;;;;;;12;6.9;;;;;;;9.3;82.97;97830;;;;
2024/03/10 19:15:24;;;;;;;11.4;7.2;;;;;;;9.2;84.15;97833.333333333;;;;
2024/03/10 19:26:24;;;;;;;11.4;7.2;;;;;;;9.13;84.92;97826.666666667;;;;
2024/03/10 19:36:24;;;;;;;11.4;7.2;;;;;;;9.2;84.48;97830;;;;
2024/03/10 19:46:24;;;;;;;11.1;6.7;;;;;;;9.05;85.09;97820;;;;
2024/03/10 19:57:24;;;;;;;11.1;6.7;;;;;;;9.11;85.52;97821.666666667;;;;
2024/03/10 20:07:24;;;;;;;11.1;6.7;;;;;;;9.1;86;97806;;;;
2024/03/10 20:18:24;;;;;;;12;5.7;;;;;;;8.88;86.72;97815;;;;
2024/03/10 20:28:24;;;;;;;12;5.7;;;;;;;9.01;86.48;97816.666666667;;;;
2024/03/10 20:38:25;;;;;;;12;5.7;;;;;;;8.95;86.46;97825;;;;
2024/03/10 20:48:26;;;;;;;12.4;6.8;;;;;;;8.99;86.52;97811.666666667;;;;
2024/03/10 20:59:24;;;;;;;12.4;6.8;;;;;;;8.98;86.39;97806;;;;
2024/03/10 21:10:25;;;;;;;12.4;6.8;;;;;;;9.02;86.58;97800;;;;
2024/03/10 21:21:24;;;;;;;10.6;6.5;;;;;;;9.01;86.27;97801.666666667;;;;
2024/03/10 21:31:26;;;;;;;10.6;6.5;;;;;;;9.09;85.82;97806.666666667;;;;
2024/03/10 21:41:26;;;;;;;10.6;6.5;;;;;;;9.17;85.72;97805;;;;
2024/03/10 21:52:25;;;;;;;12.5;6.8;;;;;;;9.1;85.76;97811.666666667;;;;
2024/03/10 22:03:25;;;;;;;12.5;6.8;;;;;;;9.02;86.42;97810;;;;
2024/03/10 22:13:24;;;;;;;12.5;6.8;;;;;;;8.92;86.76;97800;;;;
2024/03/10 22:24:24;;;;;;;11.3;6.7;;;;;;;8.75;87.55;97793.333333333;;;;
2024/03/10 22:34:24;;;;;;;11.3;6.7;;;;;;;8.69;87.69;97786.666666667;;;;
2024/03/10 22:45:25;;;;;;;13.7;8.3;;;;;;;8.44;88.68;97771.666666667;;;;
2024/03/10 22:55:25;;;;;;;13.7;8.3;;;;;;;8.43;88.77;97771.666666667;;;;
2024/03/10 23:05:25;;;;;;;13.7;8.3;;;;;;;8.4;88.72;97780;;;;
2024/03/10 23:16:24;;;;;;;11.1;7.2;;;;;;;8.38;88.72;97776.666666667;;;;
2024/03/10 23:26:26;;;;;;;11.1;7.2;;;;;;;8.35;88.67;97771.666666667;;;;
2024/03/10 23:37:26;;;;;;;11.1;7.2;;;;;;;8.32;88.54;97778.333333333;;;;
2024/03/10 23:47:24;;;;;;;10.7;6.2;;;;;;;8.29;88.55;97773.333333333;;;;
2024/03/10 23:57:26;;;;;;;10.7;6.2;;;;;;;8.19;88.43;97788.333333333;;;;
